Time;durP1;ratioP1;P1;durP2;ratioP2;P2;SDS_P1;SDS_P2;PMS_P1;PMS_P2;Temp;Humidity;BMP_temperature;BMP_pressure;BME280_temperature;BME280_humidity;BME280_pressure;Samples;Min_cycle;Max_cycle;Signal;HPM_P1;HPM_P2
2022/04/21 00:01:27;0.00;0.00;0.62;0.00;0.00;0.62;1.40;0.90;;;27.60;19.90;;;;;;2256098;61;20389;-66
2022/04/21 00:04:12;0.00;0.00;0.62;0.00;0.00;0.62;1.30;0.77;;;27.60;19.70;;;;;;2256253;61;20405;-65
2022/04/21 00:06:57;0.00;0.00;0.62;0.00;0.00;0.62;2.20;0.80;;;27.60;19.60;;;;;;2255861;61;20489;-63
2022/04/21 00:09:42;0.00;0.00;0.62;0.00;0.00;0.62;1.97;1.20;;;27.60;19.60;;;;;;2256326;61;20362;-63
2022/04/21 00:12:28;0.00;0.00;0.62;0.00;0.00;0.62;1.50;1.00;;;27.60;19.60;;;;;;2256734;61;20393;-63
2022/04/21 00:15:13;0.00;0.00;0.62;0.00;0.00;0.62;1.50;0.90;;;27.50;19.40;;;;;;2255925;61;20366;-63
2022/04/21 00:17:59;0.00;0.00;0.62;0.00;0.00;0.62;1.30;0.93;;;27.50;19.40;;;;;;2255930;61;20769;-64
2022/04/21 00:20:43;0.00;0.00;0.62;0.00;0.00;0.62;1.60;1.10;;;27.50;19.30;;;;;;2256875;61;20397;-64
2022/04/21 00:23:29;0.00;0.00;0.62;0.00;0.00;0.62;1.80;1.30;;;27.50;19.30;;;;;;2256338;61;20402;-63
2022/04/21 00:26:15;0.00;0.00;0.62;0.00;0.00;0.62;3.37;1.10;;;27.50;19.20;;;;;;2256107;61;20366;-64
2022/04/21 00:28:59;0.00;0.00;0.62;0.00;0.00;0.62;1.83;1.20;;;27.50;19.20;;;;;;2255686;61;20477;-63
2022/04/21 00:31:44;0.00;0.00;0.62;0.00;0.00;0.62;2.40;1.30;;;27.40;19.10;;;;;;2256595;61;20381;-62
2022/04/21 00:34:29;0.00;0.00;0.62;0.00;0.00;0.62;1.90;1.10;;;27.40;19.10;;;;;;2256596;61;20366;-60
2022/04/21 00:37:13;0.00;0.00;0.62;0.00;0.00;0.62;1.83;1.10;;;27.40;19.10;;;;;;2256003;61;20378;-63
2022/04/21 00:39:59;0.00;0.00;0.62;0.00;0.00;0.62;1.70;1.23;;;27.40;19.00;;;;;;2255903;61;20361;-62
2022/04/21 00:42:45;0.00;0.00;0.62;0.00;0.00;0.62;1.60;1.30;;;27.40;19.00;;;;;;2256732;61;20413;-63
2022/04/21 00:45:31;0.00;0.00;0.62;0.00;0.00;0.62;1.60;1.10;;;27.40;19.00;;;;;;2256124;61;20377;-63
2022/04/21 00:48:16;0.00;0.00;0.62;0.00;0.00;0.62;1.50;1.30;;;27.40;19.50;;;;;;2256385;61;20370;-62
2022/04/21 00:51:01;0.00;0.00;0.62;0.00;0.00;0.62;1.90;1.47;;;27.30;18.80;;;;;;2256859;61;20397;-64
2022/04/21 00:53:45;0.00;0.00;0.62;0.00;0.00;0.62;1.87;1.50;;;27.30;18.70;;;;;;2257206;61;20405;-66
2022/04/21 00:56:30;0.00;0.00;0.62;0.00;0.00;0.62;2.03;1.37;;;27.30;18.60;;;;;;2256240;61;20397;-65
2022/04/21 00:59:16;0.00;0.00;0.62;0.00;0.00;0.62;1.93;1.67;;;27.20;18.60;;;;;;2255449;61;20365;-65
2022/04/21 01:05:08;0.00;0.00;0.62;0.00;0.00;0.62;2.43;1.30;;;27.20;18.70;;;;;;2252865;61;20363;-65
2022/04/21 01:07:54;0.00;0.00;0.62;0.00;0.00;0.62;2.17;1.60;;;27.10;18.70;;;;;;2252119;61;20957;-61
2022/04/21 01:10:42;0.00;0.00;0.62;0.00;0.00;0.62;2.03;1.50;;;27.10;18.70;;;;;;2252095;61;20791;-62
2022/04/21 01:13:27;0.00;0.00;0.62;0.00;0.00;0.62;1.77;1.40;;;27.10;18.70;;;;;;2252005;61;20395;-63
2022/04/21 01:16:13;0.00;0.00;0.62;0.00;0.00;0.62;1.60;1.23;;;27.10;18.70;;;;;;2252908;61;20370;-61
2022/04/21 01:18:57;0.00;0.00;0.62;0.00;0.00;0.62;1.97;1.30;;;27.00;18.60;;;;;;2252061;61;20413;-62
2022/04/21 01:21:44;0.00;0.00;0.62;0.00;0.00;0.62;2.30;1.50;;;27.00;18.60;;;;;;2251859;61;20383;-63
2022/04/21 01:24:28;0.00;0.00;0.62;0.00;0.00;0.62;2.30;1.63;;;27.00;18.60;;;;;;2252142;61;20845;-63
2022/04/21 01:27:13;0.00;0.00;0.62;0.00;0.00;0.62;2.10;1.30;;;27.00;18.60;;;;;;2252401;61;20410;-63
2022/04/21 01:29:58;0.00;0.00;0.62;0.00;0.00;0.62;2.17;1.27;;;27.00;18.60;;;;;;2251858;61;20367;-64
2022/04/21 01:32:44;0.00;0.00;0.62;0.00;0.00;0.62;2.07;1.70;;;27.00;18.60;;;;;;2251857;61;20966;-62
2022/04/21 01:35:29;0.00;0.00;0.62;0.00;0.00;0.62;2.27;1.53;;;26.90;18.60;;;;;;2249213;61;20413;-64
2022/04/21 01:41:18;0.00;0.00;0.62;0.00;0.00;0.62;2.13;1.47;;;26.90;18.60;;;;;;2252202;61;20390;-64
2022/04/21 01:44:03;0.00;0.00;0.62;0.00;0.00;0.62;2.20;1.40;;;26.90;18.70;;;;;;2252026;61;20430;-63
2022/04/21 01:46:48;0.00;0.00;0.62;0.00;0.00;0.62;2.40;1.53;;;26.90;18.70;;;;;;2251779;61;20362;-62
2022/04/21 01:49:33;0.00;0.00;0.62;0.00;0.00;0.62;1.60;1.33;;;26.80;18.60;;;;;;2253696;61;20758;-65
2022/04/21 01:52:17;0.00;0.00;0.62;0.00;0.00;0.62;1.90;1.60;;;26.80;18.60;;;;;;2256316;61;20377;-63
2022/04/21 01:55:04;0.00;0.00;0.62;0.00;0.00;0.62;2.70;1.67;;;26.80;18.60;;;;;;2255786;61;20369;-62
2022/04/21 01:57:49;0.00;0.00;0.62;0.00;0.00;0.62;2.00;1.50;;;26.80;18.60;;;;;;2255576;61;20424;-62
2022/04/21 02:00:33;0.00;0.00;0.62;0.00;0.00;0.62;2.30;1.80;;;26.80;18.70;;;;;;2256527;61;20449;-62
2022/04/21 02:03:22;0.00;0.00;0.62;0.00;0.00;0.62;1.70;1.20;;;26.80;18.70;;;;;;2256315;61;20397;-63
2022/04/21 02:06:06;0.00;0.00;0.62;0.00;0.00;0.62;2.00;1.47;;;26.80;18.70;;;;;;2255952;61;20366;-64
2022/04/21 02:08:51;0.00;0.00;0.62;0.00;0.00;0.62;2.47;1.50;;;26.70;18.70;;;;;;2255581;61;20420;-62
2022/04/21 02:11:37;0.00;0.00;0.62;0.00;0.00;0.62;2.07;1.63;;;26.70;18.70;;;;;;2256639;61;20524;-63
2022/04/21 02:14:22;0.00;0.00;0.62;0.00;0.00;0.62;2.10;1.70;;;26.70;18.70;;;;;;2255896;61;20370;-63
2022/04/21 02:17:06;0.00;0.00;0.62;0.00;0.00;0.62;2.90;1.57;;;26.70;18.70;;;;;;2252709;61;20801;-63
2022/04/21 02:19:51;0.00;0.00;0.62;0.00;0.00;0.62;1.80;1.40;;;26.70;18.70;;;;;;2255947;61;20377;-63
2022/04/21 02:22:36;0.00;0.00;0.62;0.00;0.00;0.62;1.80;1.37;;;26.60;18.60;;;;;;2256168;61;20449;-63
2022/04/21 02:25:21;0.00;0.00;0.62;0.00;0.00;0.62;1.80;1.20;;;26.60;18.60;;;;;;2255889;61;20389;-63
2022/04/21 02:28:08;0.00;0.00;0.62;0.00;0.00;0.62;2.93;2.00;;;26.60;18.60;;;;;;2255248;61;20392;-64
2022/04/21 02:30:53;0.00;0.00;0.62;0.00;0.00;0.62;1.70;1.37;;;26.60;18.70;;;;;;2256209;61;20964;-63
2022/04/21 02:33:37;0.00;0.00;0.62;0.00;0.00;0.62;2.00;1.60;;;26.60;18.70;;;;;;2256698;61;20950;-62
2022/04/21 02:36:22;0.00;0.00;0.62;0.00;0.00;0.62;3.53;1.70;;;26.60;18.70;;;;;;2256111;61;20365;-64
2022/04/21 02:39:06;0.00;0.00;0.62;0.00;0.00;0.62;3.03;1.80;;;26.60;18.70;;;;;;2255207;61;20425;-64
2022/04/21 02:41:51;0.00;0.00;0.62;0.00;0.00;0.62;1.77;1.30;;;26.50;18.70;;;;;;2255854;61;20941;-63
2022/04/21 02:44:41;0.00;0.00;0.62;0.00;0.00;0.62;2.33;1.43;;;26.50;18.60;;;;;;2255920;61;20362;-64
2022/04/21 02:47:26;0.00;0.00;0.62;0.00;0.00;0.62;2.50;1.80;;;26.50;18.70;;;;;;2255451;61;20435;-64
2022/04/21 02:50:12;0.00;0.00;0.62;0.00;0.00;0.62;2.57;1.80;;;26.40;18.60;;;;;;2255525;61;20893;-64
2022/04/21 02:52:58;0.00;0.00;0.62;0.00;0.00;0.62;1.87;1.33;;;26.40;18.60;;;;;;2255961;61;20869;-63
2022/04/21 02:58:49;0.00;0.00;0.62;0.00;0.00;0.62;2.40;1.60;;;26.40;18.60;;;;;;2255493;61;20361;-62
2022/04/21 03:01:34;0.00;0.00;0.62;0.00;0.00;0.62;2.60;1.90;;;26.30;18.60;;;;;;2255752;61;20901;-64
2022/04/21 03:04:19;0.00;0.00;0.62;0.00;0.00;0.62;2.63;2.00;;;26.30;18.60;;;;;;2255655;61;20366;-63
2022/04/21 03:07:04;0.00;0.00;0.62;0.00;0.00;0.62;2.83;1.50;;;26.30;18.60;;;;;;2256134;61;20906;-64
2022/04/21 03:09:49;0.00;0.00;0.62;0.00;0.00;0.62;3.30;1.47;;;26.30;18.60;;;;;;2255139;61;20361;-63
2022/04/21 03:12:33;0.00;0.00;0.62;0.00;0.00;0.62;2.53;1.80;;;26.30;18.60;;;;;;2255203;61;20378;-64
2022/04/21 03:15:18;0.00;0.00;0.62;0.00;0.00;0.62;1.70;1.30;;;26.20;18.60;;;;;;2255579;61;20357;-63
2022/04/21 03:18:04;0.00;0.00;0.62;0.00;0.00;0.62;2.27;1.50;;;26.20;18.60;;;;;;2255583;61;20778;-64
2022/04/21 03:26:56;0.00;0.00;0.62;0.00;0.00;0.62;2.90;1.80;;;26.20;18.70;;;;;;2255187;61;20413;-63
2022/04/21 03:29:41;0.00;0.00;0.62;0.00;0.00;0.62;1.83;1.50;;;26.10;18.70;;;;;;2255850;61;20452;-61
2022/04/21 03:32:26;0.00;0.00;0.62;0.00;0.00;0.62;2.20;1.70;;;26.10;18.70;;;;;;2252880;61;20410;-67
2022/04/21 03:35:12;0.00;0.00;0.62;0.00;0.00;0.62;2.07;1.60;;;26.10;18.70;;;;;;2255689;61;20405;-63
2022/04/21 03:37:56;0.00;0.00;0.62;0.00;0.00;0.62;2.00;1.50;;;26.10;18.70;;;;;;2255524;61;20385;-63
2022/04/21 03:40:41;0.00;0.00;0.62;0.00;0.00;0.62;1.87;1.57;;;26.00;18.70;;;;;;2256479;61;20366;-63
2022/04/21 03:43:26;0.00;0.00;0.62;0.00;0.00;0.62;2.60;1.70;;;26.00;18.80;;;;;;2256760;61;20535;-62
2022/04/21 03:46:10;0.00;0.00;0.62;0.00;0.00;0.62;3.33;1.97;;;26.00;18.70;;;;;;2256173;61;20825;-64
2022/04/21 03:48:55;0.00;0.00;0.62;0.00;0.00;0.62;2.10;1.60;;;26.00;18.80;;;;;;2255957;61;20370;-62
2022/04/21 03:51:41;0.00;0.00;0.62;0.00;0.00;0.62;2.30;1.93;;;26.00;18.80;;;;;;2257208;61;20428;-61
2022/04/21 03:54:26;0.00;0.00;0.62;0.00;0.00;0.62;1.80;1.50;;;25.90;18.80;;;;;;2256530;61;20420;-62
2022/04/21 03:57:11;0.00;0.00;0.62;0.00;0.00;0.62;2.03;1.60;;;25.90;18.80;;;;;;2256293;61;20409;-61
2022/04/21 03:59:56;0.00;0.00;0.62;0.00;0.00;0.62;2.17;1.77;;;25.90;19.30;;;;;;2256172;61;20362;-63
2022/04/21 04:02:40;0.00;0.00;0.62;0.00;0.00;0.62;2.90;1.80;;;25.90;18.80;;;;;;2256759;61;20476;-62
2022/04/21 04:05:25;0.00;0.00;0.62;0.00;0.00;0.62;1.90;1.50;;;25.90;18.90;;;;;;2256725;61;20423;-62
2022/04/21 04:11:14;0.00;0.00;0.62;0.00;0.00;0.62;2.13;1.60;;;25.80;18.80;;;;;;2256372;61;20390;-61
2022/04/21 04:13:59;0.00;0.00;0.62;0.00;0.00;0.62;2.43;1.63;;;25.80;18.90;;;;;;2256531;61;20413;-63
2022/04/21 04:16:44;0.00;0.00;0.62;0.00;0.00;0.62;2.80;1.80;;;25.80;18.90;;;;;;2255178;61;20365;-62
2022/04/21 04:19:29;0.00;0.00;0.62;0.00;0.00;0.62;2.00;1.53;;;25.70;18.80;;;;;;2255566;61;20397;-62
2022/04/21 04:22:15;0.00;0.00;0.62;0.00;0.00;0.62;2.20;1.80;;;25.70;18.80;;;;;;2256261;61;20417;-62
2022/04/21 04:25:01;0.00;0.00;0.62;0.00;0.00;0.62;1.97;1.73;;;25.70;18.80;;;;;;2256970;61;20921;-62
2022/04/21 04:27:45;0.00;0.00;0.62;0.00;0.00;0.62;2.20;1.87;;;25.70;18.90;;;;;;2256806;61;20374;-64
2022/04/21 04:30:31;0.00;0.00;0.62;0.00;0.00;0.62;2.80;1.80;;;25.70;18.80;;;;;;2256154;61;20978;-61
2022/04/21 04:33:18;0.00;0.00;0.62;0.00;0.00;0.62;2.87;1.83;;;25.70;18.90;;;;;;2256518;61;20400;-60
2022/04/21 04:36:03;0.00;0.00;0.62;0.00;0.00;0.62;2.93;1.80;;;25.60;18.80;;;;;;2256840;61;20358;-61
2022/04/21 04:38:48;0.00;0.00;0.62;0.00;0.00;0.62;2.57;2.07;;;25.60;18.90;;;;;;2256193;61;20386;-60
2022/04/21 04:44:38;0.00;0.00;0.62;0.00;0.00;0.62;2.90;1.90;;;25.60;18.90;;;;;;2256204;61;20420;-61
2022/04/21 04:47:22;0.00;0.00;0.62;0.00;0.00;0.62;3.93;1.90;;;25.60;18.90;;;;;;2256461;61;20393;-64
2022/04/21 04:50:09;0.00;0.00;0.62;0.00;0.00;0.62;3.13;1.93;;;25.50;18.80;;;;;;2255034;61;20435;-58
2022/04/21 04:52:58;0.00;0.00;0.62;0.00;0.00;0.62;2.77;1.70;;;25.50;18.80;;;;;;2256218;61;20569;-61
2022/04/21 04:55:42;0.00;0.00;0.62;0.00;0.00;0.62;2.17;1.90;;;25.50;18.90;;;;;;2256531;61;20369;-62
2022/04/21 04:58:28;0.00;0.00;0.62;0.00;0.00;0.62;3.73;1.63;;;25.50;18.90;;;;;;2256027;61;20361;-62
2022/04/21 05:01:13;0.00;0.00;0.62;0.00;0.00;0.62;2.17;1.70;;;25.50;18.90;;;;;;2255934;61;20512;-63
2022/04/21 05:04:03;0.00;0.00;0.62;0.00;0.00;0.62;3.20;2.27;;;25.50;18.90;;;;;;2256223;61;20478;-63
2022/04/21 05:06:50;0.00;0.00;0.62;0.00;0.00;0.62;2.23;1.73;;;25.40;18.80;;;;;;2256047;61;20810;-63
2022/04/21 05:09:34;0.00;0.00;0.62;0.00;0.00;0.62;2.57;1.90;;;25.40;18.90;;;;;;2256276;61;20397;-63
2022/04/21 05:12:20;0.00;0.00;0.62;0.00;0.00;0.62;2.30;1.77;;;25.40;18.90;;;;;;2256655;61;20377;-63
2022/04/21 05:15:08;0.00;0.00;0.62;0.00;0.00;0.62;2.70;1.97;;;25.40;18.90;;;;;;2256115;61;20914;-60
2022/04/21 05:17:53;0.00;0.00;0.62;0.00;0.00;0.62;2.00;1.80;;;25.40;18.90;;;;;;2256219;61;21006;-61
2022/04/21 05:20:39;0.00;0.00;0.62;0.00;0.00;0.62;1.80;1.60;;;25.40;18.90;;;;;;2256278;61;20945;-63
2022/04/21 05:23:24;0.00;0.00;0.62;0.00;0.00;0.62;2.20;1.90;;;25.30;18.90;;;;;;2256059;61;20426;-61
2022/04/21 05:26:10;0.00;0.00;0.62;0.00;0.00;0.62;1.90;1.50;;;25.40;18.90;;;;;;2256457;61;20405;-62
2022/04/21 05:28:56;0.00;0.00;0.62;0.00;0.00;0.62;2.77;2.03;;;25.30;18.90;;;;;;2252495;61;20370;-63
2022/04/21 05:31:43;0.00;0.00;0.62;0.00;0.00;0.62;2.40;2.00;;;25.30;18.90;;;;;;2256726;61;20385;-62
2022/04/21 05:34:30;0.00;0.00;0.62;0.00;0.00;0.62;2.10;1.90;;;25.30;18.90;;;;;;2256653;61;20358;-62
2022/04/21 05:37:16;0.00;0.00;0.62;0.00;0.00;0.62;2.40;2.00;;;25.30;18.90;;;;;;2252829;61;20366;-60
2022/04/21 05:40:02;0.00;0.00;0.62;0.00;0.00;0.62;2.10;1.80;;;25.20;18.90;;;;;;2256007;61;20464;-65
2022/04/21 05:42:54;0.00;0.00;0.62;0.00;0.00;0.62;2.50;1.97;;;25.20;18.90;;;;;;2256658;61;20798;-63
2022/04/21 05:45:39;0.00;0.00;0.62;0.00;0.00;0.62;2.90;2.10;;;25.20;18.90;;;;;;2256451;61;20365;-58
2022/04/21 05:48:27;0.00;0.00;0.62;0.00;0.00;0.62;2.10;1.90;;;25.20;18.90;;;;;;2255786;61;20366;-63
2022/04/21 05:51:12;0.00;0.00;0.62;0.00;0.00;0.62;2.13;1.93;;;25.20;18.90;;;;;;2256086;61;20390;-65
2022/04/21 05:53:58;0.00;0.00;0.62;0.00;0.00;0.62;4.83;1.80;;;25.20;18.90;;;;;;2256238;61;20358;-61
2022/04/21 05:56:44;0.00;0.00;0.62;0.00;0.00;0.62;3.30;2.07;;;25.20;18.90;;;;;;2256561;61;20424;-61
2022/04/21 05:59:29;0.00;0.00;0.62;0.00;0.00;0.62;3.50;2.00;;;25.20;19.00;;;;;;2255794;61;20447;-61
2022/04/21 06:02:13;0.00;0.00;0.62;0.00;0.00;0.62;2.67;1.90;;;25.10;18.90;;;;;;2256403;61;20382;-62
2022/04/21 06:05:00;0.00;0.00;0.62;0.00;0.00;0.62;2.03;1.83;;;25.10;19.00;;;;;;2256600;61;20395;-61
2022/04/21 06:07:44;0.00;0.00;0.62;0.00;0.00;0.62;4.47;2.07;;;25.10;18.90;;;;;;2256693;61;20470;-66
2022/04/21 06:10:29;0.00;0.00;0.62;0.00;0.00;0.62;2.27;1.63;;;25.10;19.00;;;;;;2256075;61;20362;-58
2022/04/21 06:13:15;0.00;0.00;0.62;0.00;0.00;0.62;2.30;1.97;;;25.10;19.00;;;;;;2256099;61;20763;-57
2022/04/21 06:16:00;0.00;0.00;0.62;0.00;0.00;0.62;3.50;2.20;;;25.10;18.90;;;;;;2256518;61;20413;-54
2022/04/21 06:18:44;0.00;0.00;0.62;0.00;0.00;0.62;3.90;2.17;;;25.10;18.80;;;;;;2256053;61;20442;-68
2022/04/21 06:21:31;0.00;0.00;0.62;0.00;0.00;0.62;2.80;2.10;;;25.10;18.80;;;;;;2256177;61;20827;-67
2022/04/21 06:24:15;0.00;0.00;0.62;0.00;0.00;0.62;3.97;2.57;;;25.00;18.80;;;;;;2256368;61;20389;-65
2022/04/21 06:27:00;0.00;0.00;0.62;0.00;0.00;0.62;3.47;2.60;;;25.00;18.90;;;;;;2256324;61;20410;-65
2022/04/21 06:29:46;0.00;0.00;0.62;0.00;0.00;0.62;3.50;2.50;;;25.00;18.90;;;;;;2256286;61;20374;-67
2022/04/21 06:32:30;0.00;0.00;0.62;0.00;0.00;0.62;3.00;2.03;;;25.00;19.00;;;;;;2255934;61;20386;-69
2022/04/21 06:35:15;0.00;0.00;0.62;0.00;0.00;0.62;4.27;2.20;;;25.00;19.00;;;;;;2255987;61;20858;-67
2022/04/21 06:38:01;0.00;0.00;0.62;0.00;0.00;0.62;3.10;2.50;;;25.00;19.10;;;;;;2256217;61;20416;-66
2022/04/21 06:40:46;0.00;0.00;0.62;0.00;0.00;0.62;2.77;1.83;;;25.00;19.10;;;;;;2257051;61;20386;-66
2022/04/21 06:49:37;0.00;0.00;0.62;0.00;0.00;0.62;3.10;2.43;;;25.00;19.20;;;;;;2252819;61;20416;-64
2022/04/21 06:52:22;0.00;0.00;0.62;0.00;0.00;0.62;2.60;1.97;;;25.00;19.20;;;;;;2256796;61;20408;-66
2022/04/21 06:55:09;0.00;0.00;0.62;0.00;0.00;0.62;2.43;1.87;;;24.90;19.10;;;;;;2256017;61;20362;-56
2022/04/21 06:57:54;0.00;0.00;0.62;0.00;0.00;0.62;2.77;1.90;;;25.00;19.20;;;;;;2255357;61;20366;-69
2022/04/21 07:00:38;0.00;0.00;0.62;0.00;0.00;0.62;2.60;1.77;;;25.00;19.30;;;;;;2255553;61;20417;-67
2022/04/21 07:03:23;0.00;0.00;0.62;0.00;0.00;0.62;2.67;2.03;;;24.90;19.10;;;;;;2255786;61;20389;-53
2022/04/21 07:06:08;0.00;0.00;0.62;0.00;0.00;0.62;3.40;2.13;;;24.90;19.10;;;;;;2255805;61;20354;-59
2022/04/21 07:08:52;0.00;0.00;0.62;0.00;0.00;0.62;2.30;2.10;;;24.90;19.00;;;;;;2255873;61;20467;-70
2022/04/21 07:11:38;0.00;0.00;0.62;0.00;0.00;0.62;3.50;2.10;;;24.90;18.90;;;;;;2253641;61;21029;-66
2022/04/21 07:14:23;0.00;0.00;0.62;0.00;0.00;0.62;3.30;2.10;;;24.90;19.00;;;;;;2479882;53;20442;-70
2022/04/21 07:17:08;0.00;0.00;0.62;0.00;0.00;0.62;3.27;2.53;;;24.90;19.00;;;;;;2251928;61;20891;-60
2022/04/21 07:19:53;0.00;0.00;0.62;0.00;0.00;0.62;2.80;1.83;;;24.90;19.10;;;;;;2250929;61;20518;-60
2022/04/21 07:22:38;0.00;0.00;0.62;0.00;0.00;0.62;5.53;2.23;;;24.90;19.10;;;;;;2252601;61;20394;-64
2022/04/21 07:25:23;0.00;0.00;0.62;0.00;0.00;0.62;2.77;2.00;;;24.90;19.10;;;;;;2259459;61;20388;-66
2022/04/21 07:28:09;0.00;0.00;0.62;0.00;0.00;0.62;2.27;1.90;;;24.90;19.10;;;;;;2253572;61;20393;-57
2022/04/21 07:30:54;0.00;0.00;0.62;0.00;0.00;0.62;2.90;2.23;;;24.90;19.10;;;;;;2255876;61;20459;-56
2022/04/21 07:33:38;0.00;0.00;0.62;0.00;0.00;0.62;2.20;2.00;;;24.90;19.20;;;;;;2256297;61;20887;-66
2022/04/21 07:36:23;0.00;0.00;0.62;0.00;0.00;0.62;3.30;2.60;;;24.90;19.20;;;;;;2255252;61;20369;-67
2022/04/21 07:39:08;0.00;0.00;0.62;0.00;0.00;0.62;2.80;2.00;;;24.90;19.20;;;;;;2252598;61;20394;-66
2022/04/21 07:41:52;0.00;0.00;0.62;0.00;0.00;0.62;3.30;2.43;;;24.90;19.20;;;;;;2252521;61;20441;-67
2022/04/21 07:44:39;0.00;0.00;0.62;0.00;0.00;0.62;3.00;2.20;;;24.90;19.30;;;;;;2256396;61;21117;-66
2022/04/21 07:47:24;0.00;0.00;0.62;0.00;0.00;0.62;2.20;2.00;;;24.90;19.30;;;;;;2255985;61;20370;-66
2022/04/21 07:50:09;0.00;0.00;0.62;0.00;0.00;0.62;2.10;1.60;;;24.90;19.30;;;;;;2255406;61;20361;-67
2022/04/21 07:55:57;0.00;0.00;0.62;0.00;0.00;0.62;2.20;1.60;;;24.90;19.30;;;;;;2256413;61;20365;-72
2022/04/21 07:58:42;0.00;0.00;0.62;0.00;0.00;0.62;2.23;1.97;;;24.90;19.30;;;;;;2255882;61;20448;-74
2022/04/21 08:01:28;0.00;0.00;0.62;0.00;0.00;0.62;2.27;1.83;;;24.90;19.30;;;;;;2255604;61;20813;-66
2022/04/21 08:04:12;0.00;0.00;0.62;0.00;0.00;0.62;2.20;1.77;;;24.90;19.30;;;;;;2255494;61;20453;-62
2022/04/21 08:06:57;0.00;0.00;0.62;0.00;0.00;0.62;2.73;1.90;;;24.90;19.30;;;;;;2256997;61;20377;-69
2022/04/21 08:09:42;0.00;0.00;0.62;0.00;0.00;0.62;2.40;1.87;;;24.90;19.30;;;;;;2255432;61;20361;-52
2022/04/21 08:12:26;0.00;0.00;0.62;0.00;0.00;0.62;2.30;1.70;;;24.90;19.30;;;;;;2255816;61;20932;-69
2022/04/21 08:15:14;0.00;0.00;0.62;0.00;0.00;0.62;2.20;1.87;;;25.00;19.40;;;;;;2256259;61;20381;-66
2022/04/21 08:18:02;0.00;0.00;0.62;0.00;0.00;0.62;2.80;2.07;;;25.00;19.40;;;;;;2252737;61;20412;-61
2022/04/21 08:20:48;0.00;0.00;0.62;0.00;0.00;0.62;2.10;1.60;;;25.00;19.40;;;;;;2256177;61;21164;-65
2022/04/21 08:23:36;0.00;0.00;0.62;0.00;0.00;0.62;2.07;1.60;;;25.00;19.40;;;;;;2256265;61;20390;-66
2022/04/21 08:32:45;0.00;0.00;0.62;0.00;0.00;0.62;2.40;1.70;;;25.00;19.20;;;;;;2256856;61;20462;-64
2022/04/21 08:35:32;0.00;0.00;0.62;0.00;0.00;0.62;2.57;1.87;;;25.00;19.20;;;;;;2256501;61;20924;-65
2022/04/21 08:38:17;0.00;0.00;0.62;0.00;0.00;0.62;2.53;1.90;;;25.00;19.30;;;;;;2256254;61;20373;-65
2022/04/21 08:41:06;0.00;0.00;0.62;0.00;0.00;0.62;2.70;2.17;;;25.00;19.30;;;;;;2256194;61;20803;-58
2022/04/21 08:43:53;0.00;0.00;0.62;0.00;0.00;0.62;2.20;1.80;;;25.00;19.30;;;;;;2256622;61;20425;-54
2022/04/21 08:46:41;0.00;0.00;0.62;0.00;0.00;0.62;2.50;2.00;;;25.00;19.30;;;;;;2257257;61;20362;-67
2022/04/21 08:49:32;0.00;0.00;0.62;0.00;0.00;0.62;1.87;1.53;;;25.00;19.30;;;;;;2256418;61;20369;-69
2022/04/21 08:52:19;0.00;0.00;0.62;0.00;0.00;0.62;2.87;1.70;;;25.10;19.40;;;;;;2260468;61;20404;-66
2022/04/21 08:55:05;0.00;0.00;0.62;0.00;0.00;0.62;2.27;1.53;;;25.00;19.30;;;;;;2260883;61;20373;-63
2022/04/21 08:57:51;0.00;0.00;0.62;0.00;0.00;0.62;2.07;1.63;;;25.00;19.40;;;;;;2260219;61;20412;-64
2022/04/21 09:00:36;0.00;0.00;0.62;0.00;0.00;0.62;1.90;1.43;;;25.00;19.40;;;;;;2260456;61;20410;-66
2022/04/21 09:03:22;0.00;0.00;0.62;0.00;0.00;0.62;2.73;1.90;;;25.10;19.40;;;;;;2260119;61;20404;-67
2022/04/21 09:06:07;0.00;0.00;0.62;0.00;0.00;0.62;3.10;1.57;;;25.10;20.00;;;;;;2260726;61;20372;-67
2022/04/21 09:09:16;0.00;0.00;0.62;0.00;0.00;0.62;2.53;2.20;;;25.10;19.40;;;;;;2260417;61;20820;-68
2022/04/21 09:12:01;0.00;0.00;0.62;0.00;0.00;0.62;2.10;1.50;;;25.10;19.40;;;;;;2260315;61;20399;-65
2022/04/21 09:14:47;0.00;0.00;0.62;0.00;0.00;0.62;2.30;1.70;;;25.10;19.40;;;;;;2257571;61;20786;-65
2022/04/21 09:17:39;0.00;0.00;0.62;0.00;0.00;0.62;3.17;2.03;;;25.10;19.40;;;;;;2260536;61;20365;-64
2022/04/21 09:20:27;0.00;0.00;0.62;0.00;0.00;0.62;2.50;1.63;;;25.20;19.50;;;;;;2261014;61;20357;-61
2022/04/21 09:23:12;0.00;0.00;0.62;0.00;0.00;0.62;5.03;2.00;;;25.20;19.50;;;;;;2260509;61;20384;-68
2022/04/21 09:26:06;0.00;0.00;0.62;0.00;0.00;0.62;2.43;1.63;;;25.20;19.50;;;;;;2260183;61;20476;-56
2022/04/21 09:28:55;0.00;0.00;0.62;0.00;0.00;0.62;2.00;1.57;;;25.20;19.50;;;;;;2260597;61;20366;-65
2022/04/21 09:31:42;0.00;0.00;0.62;0.00;0.00;0.62;2.77;1.70;;;25.20;19.50;;;;;;2260286;61;20428;-68
2022/04/21 09:34:28;0.00;0.00;0.62;0.00;0.00;0.62;2.83;2.10;;;25.20;19.50;;;;;;2256925;61;20912;-69
2022/04/21 09:37:13;0.00;0.00;0.62;0.00;0.00;0.62;2.30;1.70;;;25.20;19.50;;;;;;2256874;61;20392;-55
2022/04/21 09:39:57;0.00;0.00;0.62;0.00;0.00;0.62;2.03;1.47;;;25.30;19.60;;;;;;2260087;61;20588;-55
2022/04/21 09:42:43;0.00;0.00;0.62;0.00;0.00;0.62;2.53;2.03;;;25.30;19.50;;;;;;2260601;61;20439;-62
2022/04/21 09:48:33;0.00;0.00;0.62;0.00;0.00;0.62;2.60;1.83;;;25.30;19.40;;;;;;2255880;61;20401;-54
2022/04/21 09:51:24;0.00;0.00;0.62;0.00;0.00;0.62;2.03;1.47;;;25.40;19.50;;;;;;2256233;61;20422;-54
2022/04/21 09:54:16;0.00;0.00;0.62;0.00;0.00;0.62;2.30;1.60;;;25.40;19.50;;;;;;2256607;61;20357;-55
2022/04/21 09:57:02;0.00;0.00;0.62;0.00;0.00;0.62;2.50;1.60;;;25.40;19.50;;;;;;2256356;61;20369;-55
2022/04/21 09:59:48;0.00;0.00;0.62;0.00;0.00;0.62;1.67;1.57;;;25.40;19.50;;;;;;2249787;61;20774;-68
2022/04/21 10:02:35;0.00;0.00;0.62;0.00;0.00;0.62;2.70;1.70;;;25.40;19.50;;;;;;2256839;61;20390;-66
2022/04/21 10:05:21;0.00;0.00;0.62;0.00;0.00;0.62;2.90;1.70;;;25.40;19.50;;;;;;2257122;61;20370;-66
2022/04/21 10:08:08;0.00;0.00;0.62;0.00;0.00;0.62;2.30;1.63;;;25.40;19.60;;;;;;2256047;61;20474;-68
2022/04/21 10:10:53;0.00;0.00;0.62;0.00;0.00;0.62;3.20;2.10;;;25.40;19.60;;;;;;2253034;61;20385;-56
2022/04/21 10:13:40;0.00;0.00;0.62;0.00;0.00;0.62;1.60;1.27;;;25.50;19.60;;;;;;2253067;61;20420;-60
2022/04/21 10:16:30;0.00;0.00;0.62;0.00;0.00;0.62;2.37;1.57;;;25.50;19.70;;;;;;2256913;61;20369;-60
2022/04/21 10:19:19;0.00;0.00;0.62;0.00;0.00;0.62;2.50;1.77;;;25.50;19.70;;;;;;2252893;61;20488;-59
2022/04/21 10:22:13;0.00;0.00;0.62;0.00;0.00;0.62;2.67;1.70;;;25.50;19.70;;;;;;2253340;61;20889;-59
2022/04/21 10:24:58;0.00;0.00;0.62;0.00;0.00;0.62;2.80;1.50;;;25.50;19.70;;;;;;2256585;61;20370;-56
2022/04/21 10:27:47;0.00;0.00;0.62;0.00;0.00;0.62;2.00;1.73;;;25.60;20.30;;;;;;2253618;61;20870;-60
2022/04/21 10:30:32;0.00;0.00;0.62;0.00;0.00;0.62;2.30;1.57;;;25.60;19.80;;;;;;2256770;61;20486;-58
2022/04/21 10:33:38;0.00;0.00;0.62;0.00;0.00;0.62;2.90;1.70;;;25.60;19.70;;;;;;2256223;61;20413;-57
2022/04/21 10:36:34;0.00;0.00;0.62;0.00;0.00;0.62;1.90;1.53;;;25.60;19.70;;;;;;2256387;61;20378;-57
2022/04/21 10:39:27;0.00;0.00;0.62;0.00;0.00;0.62;1.67;1.13;;;25.70;19.80;;;;;;2255862;61;20769;-61
2022/04/21 10:42:19;0.00;0.00;0.62;0.00;0.00;0.62;1.97;1.60;;;25.70;19.80;;;;;;2255839;61;20437;-61
2022/04/21 10:45:13;0.00;0.00;0.62;0.00;0.00;0.62;2.50;1.33;;;25.70;19.80;;;;;;2256859;61;20929;-58
2022/04/21 10:48:08;0.00;0.00;0.62;0.00;0.00;0.62;1.87;1.40;;;25.70;19.80;;;;;;2255128;61;20934;-59
2022/04/21 10:50:54;0.00;0.00;0.62;0.00;0.00;0.62;2.33;1.50;;;25.70;19.80;;;;;;2252019;61;20386;-60
2022/04/21 10:57:13;0.00;0.00;0.62;0.00;0.00;0.62;3.23;1.50;;;25.80;19.70;;;;;;2252728;61;20475;-59
2022/04/21 11:00:09;0.00;0.00;0.62;0.00;0.00;0.62;1.80;1.40;;;25.80;19.70;;;;;;2252529;61;20819;-60
2022/04/21 11:03:02;0.00;0.00;0.62;0.00;0.00;0.62;1.90;1.50;;;25.80;19.70;;;;;;2252224;61;20818;-57
2022/04/21 11:06:05;0.00;0.00;0.62;0.00;0.00;0.62;1.50;1.20;;;25.80;19.70;;;;;;2252367;61;20355;-60
2022/04/21 11:08:50;0.00;0.00;0.62;0.00;0.00;0.62;1.70;1.33;;;25.80;20.30;;;;;;2252131;61;20375;-60
2022/04/21 11:11:46;0.00;0.00;0.62;0.00;0.00;0.62;1.80;1.40;;;25.80;19.70;;;;;;2252815;61;20418;-60
2022/04/21 11:14:33;0.00;0.00;0.62;0.00;0.00;0.62;1.80;1.50;;;25.80;19.70;;;;;;2252435;61;20864;-59
2022/04/21 11:17:17;0.00;0.00;0.62;0.00;0.00;0.62;3.00;1.50;;;25.80;19.60;;;;;;2252051;61;20783;-59
2022/04/21 11:20:22;0.00;0.00;0.62;0.00;0.00;0.62;1.70;1.50;;;25.90;19.70;;;;;;2252021;61;20770;-58
2022/04/21 11:23:09;0.00;0.00;0.62;0.00;0.00;0.62;1.53;1.10;;;25.90;19.60;;;;;;2252672;61;20433;-66
2022/04/21 11:26:03;0.00;0.00;0.62;0.00;0.00;0.62;1.90;1.10;;;25.90;19.60;;;;;;2252510;61;20371;-60
2022/04/21 11:28:48;0.00;0.00;0.62;0.00;0.00;0.62;1.97;1.60;;;25.90;19.60;;;;;;2252138;61;20410;-57
2022/04/21 11:31:32;0.00;0.00;0.62;0.00;0.00;0.62;1.90;1.20;;;25.90;19.70;;;;;;2251908;61;20398;-58
2022/04/21 11:34:22;0.00;0.00;0.62;0.00;0.00;0.62;1.80;1.47;;;25.90;19.60;;;;;;2252942;61;20931;-60
2022/04/21 11:37:07;0.00;0.00;0.62;0.00;0.00;0.62;2.20;1.37;;;26.00;19.70;;;;;;2252813;61;20468;-55
2022/04/21 11:39:53;0.00;0.00;0.62;0.00;0.00;0.62;1.93;1.30;;;25.90;19.60;;;;;;2251968;61;20390;-60